createdAt,value
2022-11-06T00:01:19.746Z,9.80
2022-11-06T00:03:47.845Z,9.90
2022-11-06T00:06:35.635Z,9.80
2022-11-06T00:09:07.777Z,9.80
2022-11-06T00:11:36.387Z,9.80
2022-11-06T00:14:05.759Z,9.80
2022-11-06T00:16:33.902Z,9.80
2022-11-06T00:19:02.500Z,9.80
2022-11-06T00:21:32.447Z,9.70
2022-11-06T00:24:02.755Z,9.80
2022-11-06T00:26:33.595Z,9.80
2022-11-06T00:29:03.650Z,9.80
2022-11-06T00:31:41.747Z,9.80
2022-11-06T00:34:22.463Z,9.90
2022-11-06T00:36:50.876Z,9.90
2022-11-06T00:39:19.418Z,9.90
2022-11-06T00:41:49.301Z,9.90
2022-11-06T00:44:17.615Z,9.90
2022-11-06T00:46:45.795Z,9.80
2022-11-06T00:49:14.858Z,9.80
2022-11-06T00:51:43.067Z,9.80
2022-11-06T00:54:13.491Z,9.80
2022-11-06T00:56:42.284Z,9.80
2022-11-06T00:59:15.160Z,9.90
2022-11-06T01:01:46.533Z,9.80
2022-11-06T01:04:17.507Z,9.80
2022-11-06T01:06:47.778Z,9.80
2022-11-06T01:09:18.305Z,9.80
2022-11-06T01:14:40.593Z,9.90
2022-11-06T01:17:08.882Z,9.90
2022-11-06T01:19:37.344Z,9.90
2022-11-06T01:22:05.734Z,9.90
2022-11-06T01:24:35.063Z,9.90
2022-11-06T01:29:53.789Z,10.00
2022-11-06T01:32:21.915Z,10.00
2022-11-06T01:34:51.092Z,9.90
2022-11-06T01:37:19.321Z,10.00
2022-11-06T01:39:47.424Z,9.90
2022-11-06T01:42:16.719Z,9.90
2022-11-06T01:45:32.517Z,9.90
2022-11-06T01:48:01.365Z,10.00
2022-11-06T01:50:29.833Z,10.00
2022-11-06T01:53:00.895Z,9.90
2022-11-06T01:55:31.729Z,9.90
2022-11-06T01:58:03.264Z,9.90
2022-11-06T02:00:33.150Z,9.90
2022-11-06T02:03:02.052Z,10.00
2022-11-06T02:05:30.767Z,10.00
2022-11-06T02:08:00.283Z,10.00
2022-11-06T02:10:28.589Z,9.90
2022-11-06T02:13:09.630Z,9.90
2022-11-06T02:15:47.610Z,9.90
2022-11-06T02:18:27.002Z,9.80
2022-11-06T02:21:23.824Z,9.80
2022-11-06T02:24:20.912Z,9.80
2022-11-06T02:27:10.371Z,9.80
2022-11-06T02:29:49.803Z,9.80
2022-11-06T02:32:23.111Z,9.80
2022-11-06T02:34:54.659Z,9.90
2022-11-06T02:37:28.805Z,10.00
2022-11-06T02:40:01.815Z,9.90
2022-11-06T02:42:34.836Z,9.90
2022-11-06T02:45:04.820Z,10.00
2022-11-06T02:47:35.679Z,9.90
2022-11-06T02:50:08.377Z,9.90
2022-11-06T02:52:40.063Z,9.90
2022-11-06T02:55:12.111Z,9.90
2022-11-06T02:57:45.993Z,9.90
2022-11-06T03:00:16.679Z,9.90
2022-11-06T03:02:49.806Z,10.00
2022-11-06T03:05:23.321Z,10.00
2022-11-06T03:07:58.570Z,10.00
2022-11-06T03:10:32.049Z,9.90
2022-11-06T03:13:12.670Z,10.00
2022-11-06T03:15:44.398Z,9.90
2022-11-06T03:18:17.552Z,9.90
2022-11-06T03:20:54.394Z,9.90
2022-11-06T03:23:29.498Z,10.00
2022-11-06T03:26:05.658Z,10.00
2022-11-06T03:28:39.337Z,9.90
2022-11-06T03:31:12.585Z,9.90
2022-11-06T03:33:44.293Z,9.90
2022-11-06T03:36:16.402Z,9.90
2022-11-06T03:38:50.643Z,9.90
2022-11-06T03:41:23.624Z,10.00
2022-11-06T03:43:56.562Z,10.00
2022-11-06T03:46:27.223Z,10.00
2022-11-06T03:49:00.709Z,10.00
2022-11-06T03:51:34.396Z,10.00
2022-11-06T03:54:06.346Z,10.00
2022-11-06T03:56:40.582Z,10.00
2022-11-06T03:59:11.628Z,10.00
2022-11-06T04:01:45.238Z,9.90
2022-11-06T04:04:18.844Z,9.80
2022-11-06T04:06:50.558Z,9.90
2022-11-06T04:09:41.263Z,9.90
2022-11-06T04:12:30.253Z,10.00
2022-11-06T04:15:01.185Z,10.00
2022-11-06T04:17:31.198Z,10.10
2022-11-06T04:20:02.903Z,10.10
2022-11-06T04:22:45.996Z,10.10
2022-11-06T04:25:44.768Z,10.10
2022-11-06T04:28:25.941Z,10.20
2022-11-06T04:31:08.078Z,10.20
2022-11-06T04:33:48.233Z,10.20
2022-11-06T04:36:25.405Z,10.20
2022-11-06T04:39:00.775Z,10.30
2022-11-06T04:41:34.769Z,10.30
2022-11-06T04:44:08.500Z,10.20
2022-11-06T04:46:43.373Z,10.30
2022-11-06T04:49:13.525Z,10.20
2022-11-06T04:51:44.453Z,10.20
2022-11-06T04:54:13.851Z,10.20
2022-11-06T04:56:46.034Z,10.30
2022-11-06T04:59:20.751Z,10.40
2022-11-06T05:01:50.223Z,10.40
2022-11-06T05:04:18.405Z,10.30
2022-11-06T05:06:46.568Z,10.40
2022-11-06T05:09:14.686Z,10.40
2022-11-06T05:11:43.009Z,10.40
2022-11-06T05:14:11.672Z,10.40
2022-11-06T05:16:39.815Z,10.40
2022-11-06T05:19:09.549Z,10.50
2022-11-06T05:21:55.140Z,10.50
2022-11-06T05:24:23.240Z,10.40
2022-11-06T05:26:56.087Z,10.40
2022-11-06T05:29:27.195Z,10.30
2022-11-06T05:31:55.478Z,10.40
2022-11-06T05:34:25.822Z,10.40
2022-11-06T05:36:53.962Z,10.40
2022-11-06T05:39:22.249Z,10.40
2022-11-06T05:41:50.461Z,10.40
2022-11-06T05:44:20.398Z,10.40
2022-11-06T05:46:49.915Z,10.40
2022-11-06T05:49:19.066Z,10.40
2022-11-06T05:51:49.074Z,10.40
2022-11-06T05:54:17.191Z,10.40
2022-11-06T05:56:47.657Z,10.40
2022-11-06T05:59:16.305Z,10.40
2022-11-06T06:01:44.532Z,10.40
2022-11-06T06:04:12.749Z,10.40
2022-11-06T06:06:41.383Z,10.40
2022-11-06T06:09:10.884Z,10.30
2022-11-06T06:11:38.980Z,10.30
2022-11-06T06:14:07.289Z,10.40
2022-11-06T06:16:35.763Z,10.30
2022-11-06T06:19:03.961Z,10.40
2022-11-06T06:21:32.084Z,10.40
2022-11-06T06:24:00.277Z,10.40
2022-11-06T06:26:29.811Z,10.40
2022-11-06T06:28:58.060Z,10.40
2022-11-06T06:31:27.469Z,10.40
2022-11-06T06:33:55.914Z,10.30
2022-11-06T06:36:24.294Z,10.30
2022-11-06T06:38:52.488Z,10.20
2022-11-06T06:41:20.562Z,10.20
2022-11-06T06:43:51.399Z,10.20
2022-11-06T06:46:19.510Z,10.20
2022-11-06T06:48:47.654Z,10.20
2022-11-06T06:51:23.737Z,10.20
2022-11-06T06:53:52.588Z,10.30
2022-11-06T06:56:20.863Z,10.30
2022-11-06T06:58:50.721Z,10.30
2022-11-06T07:01:19.407Z,10.30
2022-11-06T07:03:48.412Z,10.30
2022-11-06T07:06:18.779Z,10.30
2022-11-06T07:08:47.074Z,10.30
2022-11-06T07:11:15.919Z,10.30
2022-11-06T07:13:44.135Z,10.30
2022-11-06T07:16:13.766Z,10.30
2022-11-06T07:18:42.422Z,10.30
2022-11-06T07:21:13.010Z,10.30
2022-11-06T07:23:41.703Z,10.30
2022-11-06T07:26:09.981Z,10.40
2022-11-06T07:28:38.513Z,10.40
2022-11-06T07:31:09.004Z,10.40
2022-11-06T07:33:38.613Z,10.40
2022-11-06T07:36:08.184Z,10.40
2022-11-06T07:38:36.799Z,10.50
2022-11-06T07:41:05.835Z,10.50
2022-11-06T07:43:34.637Z,10.50
2022-11-06T07:46:04.121Z,10.50
2022-11-06T07:48:32.946Z,10.60
2022-11-06T07:51:06.449Z,10.60
2022-11-06T07:53:38.007Z,10.60
2022-11-06T07:56:06.609Z,10.60
2022-11-06T07:58:39.636Z,10.60
2022-11-06T08:01:08.065Z,10.60
2022-11-06T08:03:36.223Z,10.60
2022-11-06T08:06:06.684Z,10.70
2022-11-06T08:08:35.032Z,10.70
2022-11-06T08:11:04.055Z,10.70
2022-11-06T08:13:34.012Z,10.60
2022-11-06T08:16:06.334Z,10.70
2022-11-06T08:18:34.551Z,10.70
2022-11-06T08:21:05.119Z,10.70
2022-11-06T08:23:35.308Z,10.70
2022-11-06T08:26:06.648Z,10.70
2022-11-06T08:28:35.088Z,10.70
2022-11-06T08:31:05.886Z,10.80
2022-11-06T08:33:36.162Z,10.80
2022-11-06T08:36:04.569Z,10.90
2022-11-06T08:38:34.686Z,10.90
2022-11-06T08:41:06.899Z,11.00
2022-11-06T08:43:37.652Z,11.00
2022-11-06T08:46:06.723Z,11.00
2022-11-06T08:48:36.035Z,11.00
2022-11-06T08:51:06.127Z,11.00
2022-11-06T08:53:36.533Z,11.10
2022-11-06T08:56:05.319Z,11.20
2022-11-06T08:58:35.111Z,11.30
2022-11-06T09:01:03.341Z,11.40
2022-11-06T09:03:31.574Z,11.50
2022-11-06T09:06:00.153Z,11.70
2022-11-06T09:08:28.459Z,11.90
2022-11-06T09:10:59.045Z,13.10
2022-11-06T09:13:29.756Z,14.70
2022-11-06T09:16:04.111Z,16.50
2022-11-06T09:18:32.236Z,18.20
2022-11-06T09:21:00.390Z,19.60
2022-11-06T09:23:28.636Z,20.60
2022-11-06T09:25:59.994Z,20.60
2022-11-06T09:28:28.173Z,20.30
2022-11-06T09:30:56.462Z,20.60
2022-11-06T09:33:24.621Z,20.50
2022-11-06T09:35:52.836Z,19.90
2022-11-06T09:38:20.988Z,19.10
2022-11-06T09:40:53.530Z,18.40
2022-11-06T09:46:26.767Z,16.00
2022-11-06T09:49:00.910Z,15.00
2022-11-06T09:51:37.665Z,14.50
2022-11-06T09:54:13.879Z,14.20
2022-11-06T09:56:43.444Z,13.80
2022-11-06T09:59:17.609Z,13.60
2022-11-06T10:01:48.907Z,13.50
2022-11-06T10:04:32.231Z,13.40
2022-11-06T10:07:00.380Z,13.30
2022-11-06T10:09:28.801Z,13.20
2022-11-06T10:12:06.551Z,13.20
2022-11-06T10:15:02.301Z,13.30
2022-11-06T10:17:44.679Z,13.30
2022-11-06T10:20:26.575Z,13.30
2022-11-06T10:23:05.256Z,13.40
2022-11-06T10:25:46.627Z,13.30
2022-11-06T10:28:31.365Z,13.30
2022-11-06T10:31:10.362Z,13.30
2022-11-06T10:33:54.192Z,13.30
2022-11-06T10:36:26.219Z,13.30
2022-11-06T10:38:56.411Z,13.20
2022-11-06T10:41:28.293Z,13.20
2022-11-06T10:44:15.922Z,13.30
2022-11-06T10:46:50.226Z,13.20
2022-11-06T10:49:26.666Z,13.30
2022-11-06T10:52:11.390Z,13.50
2022-11-06T10:54:54.864Z,13.60
2022-11-06T10:57:32.658Z,13.70
2022-11-06T11:00:00.951Z,13.80
2022-11-06T11:02:35.461Z,13.80
2022-11-06T11:05:03.954Z,13.60
2022-11-06T11:07:35.497Z,13.60
2022-11-06T11:10:27.587Z,13.50
2022-11-06T11:12:57.716Z,13.50
2022-11-06T11:15:28.452Z,13.60
2022-11-06T11:18:17.913Z,13.80
2022-11-06T11:20:48.734Z,13.90
2022-11-06T11:23:20.583Z,14.00
2022-11-06T11:25:50.728Z,14.00
2022-11-06T11:28:30.229Z,13.90
2022-11-06T11:31:08.817Z,13.80
2022-11-06T11:33:39.727Z,13.70
2022-11-06T11:36:10.862Z,13.60
2022-11-06T11:38:40.884Z,13.50
2022-11-06T11:41:14.697Z,13.40
2022-11-06T11:43:43.435Z,13.40
2022-11-06T11:46:20.911Z,13.40
2022-11-06T11:48:52.147Z,13.50
2022-11-06T11:51:29.821Z,13.40
2022-11-06T11:54:01.486Z,13.40
2022-11-06T11:56:57.730Z,13.40
2022-11-06T11:59:21.117Z,13.30
2022-11-06T12:01:50.105Z,13.20
2022-11-06T12:04:25.141Z,13.10
2022-11-06T12:06:59.111Z,13.10
2022-11-06T12:09:28.913Z,13.10
2022-11-06T12:12:00.130Z,13.10
2022-11-06T12:14:37.312Z,13.10
2022-11-06T12:17:13.301Z,13.00
2022-11-06T12:19:47.380Z,12.90
2022-11-06T12:22:20.980Z,12.90
2022-11-06T12:24:54.239Z,13.00
2022-11-06T12:27:25.961Z,12.90
2022-11-06T12:30:03.358Z,12.90
2022-11-06T12:32:42.601Z,12.90
2022-11-06T12:35:20.580Z,13.00
2022-11-06T12:38:03.097Z,12.90
2022-11-06T12:40:33.428Z,12.90
2022-11-06T12:43:14.299Z,12.90
2022-11-06T12:46:04.173Z,12.90
2022-11-06T12:48:59.912Z,12.60
2022-11-06T12:51:42.865Z,12.70
2022-11-06T12:54:26.009Z,12.70
2022-11-06T12:57:00.802Z,12.70
2022-11-06T12:59:42.622Z,12.80
2022-11-06T13:02:27.513Z,12.80
2022-11-06T13:05:03.193Z,12.80
2022-11-06T13:08:00.830Z,12.80
2022-11-06T13:10:42.627Z,12.80
2022-11-06T13:13:27.075Z,12.80
2022-11-06T13:16:03.893Z,12.80
2022-11-06T13:18:36.537Z,12.70
2022-11-06T13:21:09.935Z,12.80
2022-11-06T13:23:45.102Z,12.80
2022-11-06T13:26:20.703Z,12.80
2022-11-06T13:28:56.219Z,12.70
2022-11-06T13:31:31.871Z,12.70
2022-11-06T13:34:03.137Z,12.60
2022-11-06T13:36:33.173Z,12.60
2022-11-06T13:39:11.684Z,12.60
2022-11-06T13:41:39.887Z,12.60
2022-11-06T13:44:13.998Z,12.60
2022-11-06T13:46:52.731Z,12.40
2022-11-06T13:49:29.593Z,12.40
2022-11-06T13:51:59.696Z,12.30
2022-11-06T13:54:49.879Z,12.30
2022-11-06T13:57:38.974Z,12.40
2022-11-06T14:00:18.161Z,12.40
2022-11-06T14:03:16.091Z,12.40
2022-11-06T14:05:55.275Z,12.30
2022-11-06T14:08:28.305Z,12.20
2022-11-06T14:11:06.982Z,12.20
2022-11-06T14:13:37.032Z,12.10
2022-11-06T14:16:22.096Z,12.00
2022-11-06T14:19:00.270Z,12.00
2022-11-06T14:21:53.506Z,12.00
2022-11-06T14:24:39.608Z,11.90
2022-11-06T14:27:13.233Z,11.80
2022-11-06T14:30:00.233Z,11.70
2022-11-06T14:32:43.480Z,11.80
2022-11-06T14:35:51.067Z,11.70
2022-11-06T14:38:37.383Z,11.70
2022-11-06T14:41:49.105Z,11.60
2022-11-06T14:44:44.675Z,11.60
2022-11-06T14:47:51.414Z,11.50
2022-11-06T14:50:28.547Z,11.40
2022-11-06T14:53:01.646Z,11.40
2022-11-06T14:55:34.663Z,11.40
2022-11-06T14:58:15.987Z,11.40
2022-11-06T15:00:56.672Z,11.40
2022-11-06T15:03:32.583Z,11.40
2022-11-06T15:06:06.755Z,11.20
2022-11-06T15:09:01.543Z,11.20
2022-11-06T15:11:54.825Z,11.20
2022-11-06T15:14:58.686Z,11.20
2022-11-06T15:17:36.006Z,11.10
2022-11-06T15:20:16.196Z,11.10
2022-11-06T15:22:55.121Z,10.90
2022-11-06T15:25:27.670Z,10.90
2022-11-06T15:28:06.485Z,10.90
2022-11-06T15:30:44.268Z,11.00
2022-11-06T15:33:19.488Z,10.90
2022-11-06T15:35:49.875Z,10.90
2022-11-06T15:38:21.944Z,10.70
2022-11-06T15:40:54.956Z,10.70
2022-11-06T15:43:30.220Z,10.70
2022-11-06T15:46:07.608Z,10.70
2022-11-06T15:48:38.778Z,10.60
2022-11-06T15:51:21.893Z,10.60
2022-11-06T15:53:50.051Z,10.60
2022-11-06T15:56:22.209Z,10.60
2022-11-06T15:59:07.482Z,10.60
2022-11-06T16:01:36.312Z,10.60
2022-11-06T16:04:15.686Z,10.70
2022-11-06T16:06:45.647Z,10.70
2022-11-06T16:09:19.370Z,10.60
2022-11-06T16:11:50.010Z,10.70
2022-11-06T16:14:19.148Z,10.70
2022-11-06T16:16:49.088Z,10.70
2022-11-06T16:19:29.376Z,10.70
2022-11-06T16:22:03.310Z,10.80
2022-11-06T16:24:40.438Z,10.90
2022-11-06T16:27:12.713Z,10.80
2022-11-06T16:29:48.479Z,10.80
2022-11-06T16:32:20.562Z,10.70
2022-11-06T16:34:51.894Z,10.70
2022-11-06T16:37:39.720Z,10.60
2022-11-06T16:40:52.680Z,10.60
2022-11-06T16:43:22.817Z,10.50
2022-11-06T16:46:01.156Z,10.40
2022-11-06T16:48:34.588Z,10.40
2022-11-06T16:51:08.951Z,10.40
2022-11-06T16:53:57.978Z,10.40
2022-11-06T16:56:28.977Z,10.50
2022-11-06T16:59:01.623Z,10.40
2022-11-06T17:01:37.507Z,10.30
2022-11-06T17:04:06.367Z,10.30
2022-11-06T17:06:41.292Z,10.20
2022-11-06T17:09:30.572Z,10.20
2022-11-06T17:11:59.905Z,10.20
2022-11-06T17:14:28.753Z,10.20
2022-11-06T17:16:59.108Z,10.20
2022-11-06T17:19:29.270Z,10.20
2022-11-06T17:21:59.194Z,10.20
2022-11-06T17:24:42.665Z,10.20
2022-11-06T17:27:10.929Z,10.10
2022-11-06T17:29:39.485Z,10.10
2022-11-06T17:32:07.681Z,10.20
2022-11-06T17:34:35.878Z,10.20
2022-11-06T17:37:05.660Z,10.20
2022-11-06T17:39:34.135Z,10.20
2022-11-06T17:42:09.448Z,10.20
2022-11-06T17:44:45.373Z,10.20
2022-11-06T17:47:22.590Z,10.10
2022-11-06T17:49:59.396Z,10.10
2022-11-06T17:52:29.173Z,10.20
2022-11-06T17:54:58.775Z,10.30
2022-11-06T17:57:26.925Z,10.30
2022-11-06T18:00:01.035Z,10.20
2022-11-06T18:02:55.341Z,10.30
2022-11-06T18:05:20.681Z,10.40
2022-11-06T18:07:50.855Z,10.30
2022-11-06T18:10:19.087Z,10.40
2022-11-06T18:12:51.300Z,10.40
2022-11-06T18:15:19.445Z,10.40
2022-11-06T18:17:48.227Z,10.40
2022-11-06T18:20:16.481Z,10.40
2022-11-06T18:22:44.617Z,10.40
2022-11-06T18:25:16.095Z,10.50
2022-11-06T18:27:44.750Z,10.50
2022-11-06T18:30:14.170Z,10.50
2022-11-06T18:32:42.342Z,10.50
2022-11-06T18:35:11.171Z,10.60
2022-11-06T18:37:39.340Z,10.60
2022-11-06T18:40:08.553Z,10.60
2022-11-06T18:42:38.269Z,10.60
2022-11-06T18:45:08.037Z,10.60
2022-11-06T18:47:36.799Z,10.60
2022-11-06T18:50:05.772Z,10.60
2022-11-06T18:52:56.471Z,10.60
2022-11-06T18:55:23.424Z,10.60
2022-11-06T18:57:54.232Z,10.60
2022-11-06T19:00:23.114Z,10.50
2022-11-06T19:02:54.873Z,10.60
2022-11-06T19:05:23.152Z,10.50
2022-11-06T19:07:55.031Z,10.60
2022-11-06T19:10:25.993Z,10.60
2022-11-06T19:12:59.260Z,10.50
2022-11-06T19:15:28.004Z,10.60
2022-11-06T19:17:58.605Z,10.60
2022-11-06T19:20:26.848Z,10.60
2022-11-06T19:22:55.854Z,10.60
2022-11-06T19:25:25.726Z,10.60
2022-11-06T19:27:57.286Z,10.70
2022-11-06T19:30:25.728Z,10.60
2022-11-06T19:32:54.049Z,10.70
2022-11-06T19:35:22.380Z,10.60
2022-11-06T19:37:50.659Z,10.60
2022-11-06T19:40:19.832Z,10.60
2022-11-06T19:42:48.064Z,10.60
2022-11-06T19:45:17.809Z,10.70
2022-11-06T19:47:46.416Z,10.70
2022-11-06T19:50:14.543Z,10.70
2022-11-06T19:52:45.489Z,10.70
2022-11-06T19:55:26.838Z,10.70
2022-11-06T19:58:01.090Z,10.70
2022-11-06T20:00:30.640Z,10.70
2022-11-06T20:02:58.806Z,10.70
2022-11-06T20:05:27.393Z,10.70
2022-11-06T20:07:55.593Z,10.70
2022-11-06T20:10:24.093Z,10.70
2022-11-06T20:12:52.392Z,10.70
2022-11-06T20:15:23.931Z,10.70
2022-11-06T20:17:54.352Z,10.70
2022-11-06T20:20:23.006Z,10.80
2022-11-06T20:22:51.770Z,10.80
2022-11-06T20:25:20.029Z,10.90
2022-11-06T20:27:48.229Z,10.90
2022-11-06T20:30:16.699Z,10.90
2022-11-06T20:32:45.449Z,10.90
2022-11-06T20:35:17.047Z,10.90
2022-11-06T20:37:45.627Z,10.90
2022-11-06T20:40:14.247Z,10.90
2022-11-06T20:42:42.548Z,10.90
2022-11-06T20:45:25.489Z,10.90
2022-11-06T20:47:53.901Z,10.90
2022-11-06T20:50:23.502Z,10.90
2022-11-06T20:52:51.709Z,10.90
2022-11-06T20:55:22.382Z,10.90
2022-11-06T20:57:50.531Z,10.90
2022-11-06T21:00:19.664Z,10.90
2022-11-06T21:02:47.971Z,10.90
2022-11-06T21:05:17.123Z,11.00
2022-11-06T21:07:46.833Z,11.00
2022-11-06T21:10:15.019Z,11.00
2022-11-06T21:12:44.044Z,10.90
2022-11-06T21:15:12.260Z,11.00
2022-11-06T21:17:43.581Z,10.90
2022-11-06T21:20:11.906Z,11.00
2022-11-06T21:22:40.503Z,10.90
2022-11-06T21:25:11.977Z,11.00
2022-11-06T21:27:40.105Z,10.90
2022-11-06T21:30:09.216Z,10.90
2022-11-06T21:32:37.384Z,11.00
2022-11-06T21:35:06.132Z,10.90
2022-11-06T21:37:34.425Z,11.00
2022-11-06T21:40:02.960Z,11.00
2022-11-06T21:42:32.564Z,10.90
2022-11-06T21:45:03.932Z,10.90
2022-11-06T21:47:32.065Z,11.00
2022-11-06T21:50:00.446Z,10.90
2022-11-06T21:52:46.627Z,11.00
2022-11-06T21:55:32.225Z,11.00
2022-11-06T21:58:02.523Z,11.00
2022-11-06T22:00:31.783Z,11.00
2022-11-06T22:03:00.101Z,11.00
2022-11-06T22:05:28.409Z,11.10
2022-11-06T22:07:56.601Z,11.10
2022-11-06T22:10:27.986Z,11.10
2022-11-06T22:12:56.207Z,11.10
2022-11-06T22:15:26.406Z,11.00
2022-11-06T22:17:55.023Z,11.10
2022-11-06T22:20:23.126Z,11.10
2022-11-06T22:22:51.281Z,11.10
2022-11-06T22:25:19.590Z,11.10
2022-11-06T22:27:48.397Z,11.10
2022-11-06T22:30:16.713Z,11.10
2022-11-06T22:32:46.397Z,11.10
2022-11-06T22:35:14.562Z,11.10
2022-11-06T22:37:43.045Z,11.10
2022-11-06T22:40:12.491Z,11.10
2022-11-06T22:42:42.037Z,11.10
2022-11-06T22:45:12.217Z,11.20
2022-11-06T22:47:41.066Z,11.10
2022-11-06T22:50:10.993Z,11.20
2022-11-06T22:52:39.194Z,11.20
2022-11-06T22:55:08.552Z,11.20
2022-11-06T22:57:36.689Z,11.20
2022-11-06T23:00:06.941Z,11.20
2022-11-06T23:02:35.633Z,11.20
2022-11-06T23:05:04.244Z,11.20
2022-11-06T23:07:33.831Z,11.20
2022-11-06T23:10:01.975Z,11.20
2022-11-06T23:12:30.837Z,11.20
2022-11-06T23:14:59.414Z,11.20
2022-11-06T23:17:28.165Z,11.20
2022-11-06T23:19:56.727Z,11.10
2022-11-06T23:22:37.553Z,11.10
2022-11-06T23:25:08.401Z,11.10
2022-11-06T23:27:37.564Z,11.10
2022-11-06T23:30:08.463Z,11.20
2022-11-06T23:32:38.370Z,11.20
2022-11-06T23:35:12.991Z,11.10
2022-11-06T23:37:42.253Z,11.10
2022-11-06T23:40:13.171Z,11.10
2022-11-06T23:42:43.257Z,11.10
2022-11-06T23:45:29.715Z,11.10
2022-11-06T23:48:07.541Z,11.10
2022-11-06T23:50:36.847Z,11.20
2022-11-06T23:53:05.023Z,11.20
2022-11-06T23:55:34.661Z,11.30
2022-11-06T23:58:02.878Z,11.30
